sensor_id;sensor_type;location;lat;lon;timestamp;P1;P2;P0
72509;PMS5003;60532;56.114;40.350;2022-11-11T00:00:45;37.50;27.50;14.25
72509;PMS5003;60532;56.114;40.350;2022-11-11T00:02:46;42.25;37.00;15.50
72509;PMS5003;60532;56.114;40.350;2022-11-11T00:04:48;38.00;31.00;14.80
72509;PMS5003;60532;56.114;40.350;2022-11-11T00:06:48;42.25;32.50;16.00
72509;PMS5003;60532;56.114;40.350;2022-11-11T00:08:49;41.25;35.75;16.00
72509;PMS5003;60532;56.114;40.350;2022-11-11T00:10:49;40.25;33.50;16.00
72509;PMS5003;60532;56.114;40.350;2022-11-11T00:12:50;41.00;36.25;15.50
72509;PMS5003;60532;56.114;40.350;2022-11-11T00:14:50;37.50;35.50;16.00
72509;PMS5003;60532;56.114;40.350;2022-11-11T00:16:51;36.50;28.25;14.00
72509;PMS5003;60532;56.114;40.350;2022-11-11T00:19:09;39.20;31.80;14.00
72509;PMS5003;60532;56.114;40.350;2022-11-11T00:21:28;36.00;31.00;15.40
72509;PMS5003;60532;56.114;40.350;2022-11-11T00:23:37;31.60;28.00;11.20
72509;PMS5003;60532;56.114;40.350;2022-11-11T00:25:56;38.40;32.00;17.00
72509;PMS5003;60532;56.114;40.350;2022-11-11T00:27:57;38.80;35.00;16.00
72509;PMS5003;60532;56.114;40.350;2022-11-11T00:29:58;35.75;21.75;7.25
72509;PMS5003;60532;56.114;40.350;2022-11-11T00:31:58;40.25;37.00;16.50
72509;PMS5003;60532;56.114;40.350;2022-11-11T00:34:17;40.00;35.60;16.00
72509;PMS5003;60532;56.114;40.350;2022-11-11T00:36:17;38.00;30.25;15.00
72509;PMS5003;60532;56.114;40.350;2022-11-11T00:38:18;32.25;27.50;10.50
72509;PMS5003;60532;56.114;40.350;2022-11-11T00:40:37;34.60;32.40;16.60
72509;PMS5003;60532;56.114;40.350;2022-11-11T00:42:38;27.25;22.00;8.00
72509;PMS5003;60532;56.114;40.350;2022-11-11T00:44:38;37.50;28.50;14.00
72509;PMS5003;60532;56.114;40.350;2022-11-11T00:46:39;43.75;31.75;13.00
72509;PMS5003;60532;56.114;40.350;2022-11-11T00:48:58;40.80;31.20;12.80
72509;PMS5003;60532;56.114;40.350;2022-11-11T00:51:17;34.00;28.60;9.20
72509;PMS5003;60532;56.114;40.350;2022-11-11T00:53:18;30.25;25.50;13.75
72509;PMS5003;60532;56.114;40.350;2022-11-11T00:55:19;38.00;29.60;13.80
72509;PMS5003;60532;56.114;40.350;2022-11-11T00:57:20;42.00;34.25;16.75
72509;PMS5003;60532;56.114;40.350;2022-11-11T00:59:20;32.00;29.50;15.25
72509;PMS5003;60532;56.114;40.350;2022-11-11T01:01:21;30.25;29.50;14.50
72509;PMS5003;60532;56.114;40.350;2022-11-11T01:03:21;35.25;26.00;11.00
72509;PMS5003;60532;56.114;40.350;2022-11-11T01:05:22;35.00;29.00;14.00
72509;PMS5003;60532;56.114;40.350;2022-11-11T01:07:23;36.75;33.25;16.00
72509;PMS5003;60532;56.114;40.350;2022-11-11T01:09:23;45.25;34.50;16.00
72509;PMS5003;60532;56.114;40.350;2022-11-11T01:11:24;33.25;27.25;12.50
72509;PMS5003;60532;56.114;40.350;2022-11-11T01:13:25;38.50;28.75;12.25
72509;PMS5003;60532;56.114;40.350;2022-11-11T01:15:26;24.60;22.00;11.20
72509;PMS5003;60532;56.114;40.350;2022-11-11T01:17:27;40.50;29.50;14.00
72509;PMS5003;60532;56.114;40.350;2022-11-11T01:19:28;27.20;26.80;14.20
72509;PMS5003;60532;56.114;40.350;2022-11-11T01:21:29;35.50;30.00;14.50
72509;PMS5003;60532;56.114;40.350;2022-11-11T01:23:29;35.25;30.75;13.50
72509;PMS5003;60532;56.114;40.350;2022-11-11T01:25:37;31.00;28.80;13.40
72509;PMS5003;60532;56.114;40.350;2022-11-11T01:27:38;31.60;29.60;12.80
72509;PMS5003;60532;56.114;40.350;2022-11-11T01:29:39;33.75;28.25;14.00
72509;PMS5003;60532;56.114;40.350;2022-11-11T01:31:39;38.75;31.25;13.75
72509;PMS5003;60532;56.114;40.350;2022-11-11T01:33:40;27.50;27.00;12.00
72509;PMS5003;60532;56.114;40.350;2022-11-11T01:35:40;30.50;26.50;13.00
72509;PMS5003;60532;56.114;40.350;2022-11-11T01:37:41;41.50;32.00;13.00
72509;PMS5003;60532;56.114;40.350;2022-11-11T01:39:41;36.00;34.25;16.50
72509;PMS5003;60532;56.114;40.350;2022-11-11T01:41:42;35.75;32.50;13.00
72509;PMS5003;60532;56.114;40.350;2022-11-11T01:43:42;33.75;30.50;14.25
72509;PMS5003;60532;56.114;40.350;2022-11-11T01:47:44;38.60;33.20;15.20
72509;PMS5003;60532;56.114;40.350;2022-11-11T01:50:03;37.60;31.60;15.80
72509;PMS5003;60532;56.114;40.350;2022-11-11T01:54:05;33.50;28.75;13.75
72509;PMS5003;60532;56.114;40.350;2022-11-11T01:56:07;31.20;27.40;12.80
72509;PMS5003;60532;56.114;40.350;2022-11-11T01:58:10;38.60;31.20;17.00
72509;PMS5003;60532;56.114;40.350;2022-11-11T02:00:14;40.60;32.60;15.60
72509;PMS5003;60532;56.114;40.350;2022-11-11T02:02:19;33.60;28.20;15.60
72509;PMS5003;60532;56.114;40.350;2022-11-11T02:04:21;38.40;33.00;16.80
72509;PMS5003;60532;56.114;40.350;2022-11-11T02:06:40;39.40;33.60;13.80
72509;PMS5003;60532;56.114;40.350;2022-11-11T02:08:41;29.75;25.00;4.50
72509;PMS5003;60532;56.114;40.350;2022-11-11T02:10:43;45.40;36.80;16.00
72509;PMS5003;60532;56.114;40.350;2022-11-11T02:12:45;36.00;29.40;15.60
72509;PMS5003;60532;56.114;40.350;2022-11-11T02:15:04;36.40;29.60;14.80
72509;PMS5003;60532;56.114;40.350;2022-11-11T02:17:07;37.20;30.20;11.80
72509;PMS5003;60532;56.114;40.350;2022-11-11T02:19:08;40.40;35.60;16.00
72509;PMS5003;60532;56.114;40.350;2022-11-11T02:21:10;43.75;36.75;16.75
72509;PMS5003;60532;56.114;40.350;2022-11-11T02:25:48;31.20;24.80;12.00
72509;PMS5003;60532;56.114;40.350;2022-11-11T02:27:49;34.40;28.60;14.00
72509;PMS5003;60532;56.114;40.350;2022-11-11T02:29:51;37.00;32.80;15.40
72509;PMS5003;60532;56.114;40.350;2022-11-11T02:31:53;39.60;33.20;14.00
72509;PMS5003;60532;56.114;40.350;2022-11-11T02:33:53;39.25;31.75;16.00
72509;PMS5003;60532;56.114;40.350;2022-11-11T02:35:54;36.50;32.00;14.00
72509;PMS5003;60532;56.114;40.350;2022-11-11T02:37:56;33.20;28.80;13.20
72509;PMS5003;60532;56.114;40.350;2022-11-11T02:39:57;40.50;32.25;13.00
72509;PMS5003;60532;56.114;40.350;2022-11-11T02:42:00;32.40;28.00;13.60
72509;PMS5003;60532;56.114;40.350;2022-11-11T02:44:04;39.40;34.80;16.80
72509;PMS5003;60532;56.114;40.350;2022-11-11T02:46:05;39.00;32.75;13.00
72509;PMS5003;60532;56.114;40.350;2022-11-11T02:48:06;36.00;33.80;15.00
72509;PMS5003;60532;56.114;40.350;2022-11-11T02:50:06;34.00;28.50;15.00
72509;PMS5003;60532;56.114;40.350;2022-11-11T02:52:07;38.50;28.00;12.00
72509;PMS5003;60532;56.114;40.350;2022-11-11T02:54:08;39.50;33.00;14.00
72509;PMS5003;60532;56.114;40.350;2022-11-11T02:56:08;45.25;35.50;16.00
72509;PMS5003;60532;56.114;40.350;2022-11-11T02:58:09;32.00;30.50;15.00
72509;PMS5003;60532;56.114;40.350;2022-11-11T03:00:10;34.25;30.25;13.00
72509;PMS5003;60532;56.114;40.350;2022-11-11T03:02:10;47.25;30.50;13.75
72509;PMS5003;60532;56.114;40.350;2022-11-11T03:04:11;38.25;33.50;14.50
72509;PMS5003;60532;56.114;40.350;2022-11-11T03:06:11;39.25;33.50;13.50
72509;PMS5003;60532;56.114;40.350;2022-11-11T03:08:12;33.75;30.75;13.00
72509;PMS5003;60532;56.114;40.350;2022-11-11T03:10:12;37.25;31.00;12.75
72509;PMS5003;60532;56.114;40.350;2022-11-11T03:12:13;31.75;24.50;10.50
72509;PMS5003;60532;56.114;40.350;2022-11-11T03:14:14;38.40;29.00;14.00
72509;PMS5003;60532;56.114;40.350;2022-11-11T03:16:14;34.00;31.25;12.75
72509;PMS5003;60532;56.114;40.350;2022-11-11T03:18:34;34.00;33.00;13.80
72509;PMS5003;60532;56.114;40.350;2022-11-11T03:20:35;37.25;32.25;14.00
72509;PMS5003;60532;56.114;40.350;2022-11-11T03:23:04;37.20;29.60;14.20
72509;PMS5003;60532;56.114;40.350;2022-11-11T03:25:05;35.00;27.00;13.40
72509;PMS5003;60532;56.114;40.350;2022-11-11T03:27:23;38.60;30.80;13.60
72509;PMS5003;60532;56.114;40.350;2022-11-11T03:29:24;35.75;29.25;14.25
72509;PMS5003;60532;56.114;40.350;2022-11-11T03:31:24;30.00;26.00;15.25
72509;PMS5003;60532;56.114;40.350;2022-11-11T03:33:25;39.75;31.00;15.50
72509;PMS5003;60532;56.114;40.350;2022-11-11T03:35:25;34.50;30.25;15.00
72509;PMS5003;60532;56.114;40.350;2022-11-11T03:37:26;31.75;27.00;11.50
72509;PMS5003;60532;56.114;40.350;2022-11-11T03:39:45;18.60;18.60;11.20
72509;PMS5003;60532;56.114;40.350;2022-11-11T03:41:45;40.50;34.25;13.00
72509;PMS5003;60532;56.114;40.350;2022-11-11T03:43:46;33.25;27.75;14.50
72509;PMS5003;60532;56.114;40.350;2022-11-11T03:45:46;36.50;27.50;13.50
72509;PMS5003;60532;56.114;40.350;2022-11-11T03:47:47;32.00;29.00;8.50
72509;PMS5003;60532;56.114;40.350;2022-11-11T03:49:47;32.00;29.25;14.50
72509;PMS5003;60532;56.114;40.350;2022-11-11T03:51:48;31.75;26.00;11.00
72509;PMS5003;60532;56.114;40.350;2022-11-11T03:53:48;32.00;29.25;12.50
72509;PMS5003;60532;56.114;40.350;2022-11-11T03:55:49;28.50;22.00;12.00
72509;PMS5003;60532;56.114;40.350;2022-11-11T03:57:50;31.60;30.00;12.40
72509;PMS5003;60532;56.114;40.350;2022-11-11T03:59:50;32.25;29.25;13.25
72509;PMS5003;60532;56.114;40.350;2022-11-11T04:01:51;32.50;28.25;12.75
72509;PMS5003;60532;56.114;40.350;2022-11-11T04:04:10;40.60;31.00;13.20
72509;PMS5003;60532;56.114;40.350;2022-11-11T04:06:29;30.60;26.20;12.40
72509;PMS5003;60532;56.114;40.350;2022-11-11T04:08:48;33.40;27.00;15.00
72509;PMS5003;60532;56.114;40.350;2022-11-11T04:11:08;27.60;26.00;9.20
72509;PMS5003;60532;56.114;40.350;2022-11-11T04:13:10;32.60;29.00;14.20
72509;PMS5003;60532;56.114;40.350;2022-11-11T04:15:29;35.20;27.80;13.20
72509;PMS5003;60532;56.114;40.350;2022-11-11T04:17:48;22.00;17.60;12.00
72509;PMS5003;60532;56.114;40.350;2022-11-11T04:19:48;21.25;14.75;7.50
72509;PMS5003;60532;56.114;40.350;2022-11-11T04:22:07;29.40;22.00;12.00
72509;PMS5003;60532;56.114;40.350;2022-11-11T04:24:08;34.00;29.00;15.50
72509;PMS5003;60532;56.114;40.350;2022-11-11T04:26:28;27.00;21.20;12.80
72509;PMS5003;60532;56.114;40.350;2022-11-11T04:28:28;38.25;30.00;13.00
72509;PMS5003;60532;56.114;40.350;2022-11-11T04:30:47;39.80;32.80;15.40
72509;PMS5003;60532;56.114;40.350;2022-11-11T04:32:48;40.75;35.50;15.00
72509;PMS5003;60532;56.114;40.350;2022-11-11T04:34:49;30.50;23.25;8.75
72509;PMS5003;60532;56.114;40.350;2022-11-11T04:36:53;42.80;31.80;12.60
72509;PMS5003;60532;56.114;40.350;2022-11-11T04:38:53;37.50;32.25;16.00
72509;PMS5003;60532;56.114;40.350;2022-11-11T04:41:12;33.00;28.80;13.40
72509;PMS5003;60532;56.114;40.350;2022-11-11T04:43:13;31.75;27.50;12.50
72509;PMS5003;60532;56.114;40.350;2022-11-11T04:45:13;38.75;36.50;17.25
72509;PMS5003;60532;56.114;40.350;2022-11-11T04:47:33;20.60;19.00;10.20
72509;PMS5003;60532;56.114;40.350;2022-11-11T04:49:33;38.50;31.00;14.00
72509;PMS5003;60532;56.114;40.350;2022-11-11T04:51:34;36.75;28.00;13.00
72509;PMS5003;60532;56.114;40.350;2022-11-11T04:53:53;32.40;27.00;14.20
72509;PMS5003;60532;56.114;40.350;2022-11-11T04:55:53;32.25;28.25;13.50
72509;PMS5003;60532;56.114;40.350;2022-11-11T04:58:12;32.40;26.60;11.80
72509;PMS5003;60532;56.114;40.350;2022-11-11T05:00:14;28.60;27.40;13.60
72509;PMS5003;60532;56.114;40.350;2022-11-11T05:02:15;31.20;26.00;13.00
72509;PMS5003;60532;56.114;40.350;2022-11-11T05:04:34;28.20;26.20;13.40
72509;PMS5003;60532;56.114;40.350;2022-11-11T05:06:35;32.75;30.25;12.75
72509;PMS5003;60532;56.114;40.350;2022-11-11T05:08:53;31.60;27.40;12.00
72509;PMS5003;60532;56.114;40.350;2022-11-11T05:10:58;25.80;20.80;12.60
72509;PMS5003;60532;56.114;40.350;2022-11-11T05:12:58;32.25;29.75;13.00
72509;PMS5003;60532;56.114;40.350;2022-11-11T05:15:18;28.80;26.80;11.40
72509;PMS5003;60532;56.114;40.350;2022-11-11T05:17:37;30.40;26.20;13.00
72509;PMS5003;60532;56.114;40.350;2022-11-11T05:19:56;43.20;32.80;13.40
72509;PMS5003;60532;56.114;40.350;2022-11-11T05:22:20;30.40;24.60;13.60
72509;PMS5003;60532;56.114;40.350;2022-11-11T05:24:22;28.60;28.60;12.40
72509;PMS5003;60532;56.114;40.350;2022-11-11T05:26:41;27.80;27.00;12.80
72509;PMS5003;60532;56.114;40.350;2022-11-11T05:28:41;22.25;20.50;13.00
72509;PMS5003;60532;56.114;40.350;2022-11-11T05:30:42;31.00;24.75;11.00
72509;PMS5003;60532;56.114;40.350;2022-11-11T05:32:42;34.00;30.50;12.25
72509;PMS5003;60532;56.114;40.350;2022-11-11T05:34:43;23.00;21.00;7.00
72509;PMS5003;60532;56.114;40.350;2022-11-11T05:36:44;23.00;18.80;10.80
72509;PMS5003;60532;56.114;40.350;2022-11-11T05:38:44;27.50;26.00;11.75
72509;PMS5003;60532;56.114;40.350;2022-11-11T05:40:45;26.25;25.25;12.75
72509;PMS5003;60532;56.114;40.350;2022-11-11T05:42:45;30.75;25.00;14.00
72509;PMS5003;60532;56.114;40.350;2022-11-11T05:44:46;33.75;28.50;12.00
72509;PMS5003;60532;56.114;40.350;2022-11-11T05:46:46;25.25;23.25;11.25
72509;PMS5003;60532;56.114;40.350;2022-11-11T05:48:46;31.50;25.75;12.25
72509;PMS5003;60532;56.114;40.350;2022-11-11T05:51:13;23.80;23.00;11.60
72509;PMS5003;60532;56.114;40.350;2022-11-11T05:53:27;21.60;19.60;7.00
72509;PMS5003;60532;56.114;40.350;2022-11-11T05:55:27;30.75;22.00;11.50
72509;PMS5003;60532;56.114;40.350;2022-11-11T05:57:29;27.75;21.75;9.50
72509;PMS5003;60532;56.114;40.350;2022-11-11T05:59:30;24.40;23.60;12.00
72509;PMS5003;60532;56.114;40.350;2022-11-11T06:01:30;24.25;20.75;10.25
72509;PMS5003;60532;56.114;40.350;2022-11-11T06:03:31;25.50;21.75;12.00
72509;PMS5003;60532;56.114;40.350;2022-11-11T06:05:31;25.50;22.00;10.75
72509;PMS5003;60532;56.114;40.350;2022-11-11T06:07:31;26.25;22.25;11.75
72509;PMS5003;60532;56.114;40.350;2022-11-11T06:09:32;22.75;18.00;9.50
72509;PMS5003;60532;56.114;40.350;2022-11-11T06:11:32;23.25;22.00;12.00
72509;PMS5003;60532;56.114;40.350;2022-11-11T06:13:33;27.50;25.50;11.50
72509;PMS5003;60532;56.114;40.350;2022-11-11T06:15:34;30.25;26.75;12.00
72509;PMS5003;60532;56.114;40.350;2022-11-11T06:17:34;30.40;23.40;12.20
72509;PMS5003;60532;56.114;40.350;2022-11-11T06:19:35;23.50;19.50;11.00
72509;PMS5003;60532;56.114;40.350;2022-11-11T06:21:35;25.00;22.25;10.00
72509;PMS5003;60532;56.114;40.350;2022-11-11T06:23:56;27.40;22.20;10.40
72509;PMS5003;60532;56.114;40.350;2022-11-11T06:25:56;21.25;19.75;7.75
72509;PMS5003;60532;56.114;40.350;2022-11-11T06:28:12;21.00;17.00;8.40
72509;PMS5003;60532;56.114;40.350;2022-11-11T06:30:13;22.00;19.00;8.60
72509;PMS5003;60532;56.114;40.350;2022-11-11T06:32:14;21.50;18.00;8.00
72509;PMS5003;60532;56.114;40.350;2022-11-11T06:34:14;22.50;16.00;8.50
72509;PMS5003;60532;56.114;40.350;2022-11-11T06:36:15;23.50;20.50;10.25
72509;PMS5003;60532;56.114;40.350;2022-11-11T06:38:16;20.60;18.00;9.00
72509;PMS5003;60532;56.114;40.350;2022-11-11T06:40:17;21.75;18.00;10.50
72509;PMS5003;60532;56.114;40.350;2022-11-11T06:42:18;17.75;17.75;10.50
72509;PMS5003;60532;56.114;40.350;2022-11-11T06:44:18;17.75;15.50;7.00
72509;PMS5003;60532;56.114;40.350;2022-11-11T06:46:22;19.25;16.75;7.75
72509;PMS5003;60532;56.114;40.350;2022-11-11T06:48:24;22.60;20.00;9.40
72509;PMS5003;60532;56.114;40.350;2022-11-11T06:50:25;22.20;17.80;8.00
72509;PMS5003;60532;56.114;40.350;2022-11-11T06:52:26;24.40;19.00;9.40
72509;PMS5003;60532;56.114;40.350;2022-11-11T06:54:26;18.25;17.75;8.00
72509;PMS5003;60532;56.114;40.350;2022-11-11T06:56:27;20.75;18.25;8.50
72509;PMS5003;60532;56.114;40.350;2022-11-11T06:58:27;19.75;18.00;9.00
72509;PMS5003;60532;56.114;40.350;2022-11-11T07:00:28;19.50;16.75;8.00
72509;PMS5003;60532;56.114;40.350;2022-11-11T07:02:28;19.75;17.50;8.50
72509;PMS5003;60532;56.114;40.350;2022-11-11T07:04:29;17.75;15.00;6.75
72509;PMS5003;60532;56.114;40.350;2022-11-11T07:06:30;15.50;13.50;7.75
72509;PMS5003;60532;56.114;40.350;2022-11-11T07:08:31;16.00;14.25;8.50
72509;PMS5003;60532;56.114;40.350;2022-11-11T07:10:32;14.80;12.40;3.00
72509;PMS5003;60532;56.114;40.350;2022-11-11T07:12:33;17.40;16.80;9.20
72509;PMS5003;60532;56.114;40.350;2022-11-11T07:14:33;17.25;14.50;7.00
72509;PMS5003;60532;56.114;40.350;2022-11-11T07:16:35;16.50;12.25;7.00
72509;PMS5003;60532;56.114;40.350;2022-11-11T07:18:35;19.20;15.00;6.40
72509;PMS5003;60532;56.114;40.350;2022-11-11T07:20:36;15.50;12.75;7.75
72509;PMS5003;60532;56.114;40.350;2022-11-11T07:22:37;21.00;16.25;7.50
72509;PMS5003;60532;56.114;40.350;2022-11-11T07:24:37;18.25;16.00;7.00
72509;PMS5003;60532;56.114;40.350;2022-11-11T07:26:38;14.50;11.00;6.00
72509;PMS5003;60532;56.114;40.350;2022-11-11T07:28:38;16.00;14.00;8.00
72509;PMS5003;60532;56.114;40.350;2022-11-11T07:30:39;20.50;15.00;8.00
72509;PMS5003;60532;56.114;40.350;2022-11-11T07:32:43;12.60;12.20;7.00
72509;PMS5003;60532;56.114;40.350;2022-11-11T07:34:45;16.00;12.20;7.20
72509;PMS5003;60532;56.114;40.350;2022-11-11T07:36:45;17.00;13.00;6.50
72509;PMS5003;60532;56.114;40.350;2022-11-11T07:38:46;11.75;11.75;5.25
72509;PMS5003;60532;56.114;40.350;2022-11-11T07:40:46;16.25;16.00;6.75
72509;PMS5003;60532;56.114;40.350;2022-11-11T07:42:47;13.75;13.75;7.00
72509;PMS5003;60532;56.114;40.350;2022-11-11T07:44:47;12.75;12.00;6.75
72509;PMS5003;60532;56.114;40.350;2022-11-11T07:46:48;12.00;12.00;6.00
72509;PMS5003;60532;56.114;40.350;2022-11-11T07:48:48;16.25;14.00;7.00
72509;PMS5003;60532;56.114;40.350;2022-11-11T07:50:50;13.00;11.50;5.00
72509;PMS5003;60532;56.114;40.350;2022-11-11T07:52:51;16.00;12.60;6.80
72509;PMS5003;60532;56.114;40.350;2022-11-11T07:54:51;14.00;11.00;6.25
72509;PMS5003;60532;56.114;40.350;2022-11-11T07:56:52;11.75;11.75;7.00
72509;PMS5003;60532;56.114;40.350;2022-11-11T07:58:52;15.00;12.75;7.75
72509;PMS5003;60532;56.114;40.350;2022-11-11T08:00:53;12.75;11.50;3.00
72509;PMS5003;60532;56.114;40.350;2022-11-11T08:02:53;10.00;8.50;4.00
72509;PMS5003;60532;56.114;40.350;2022-11-11T08:04:54;12.25;12.25;7.00
72509;PMS5003;60532;56.114;40.350;2022-11-11T08:06:54;13.75;13.00;6.00
72509;PMS5003;60532;56.114;40.350;2022-11-11T08:08:55;12.75;8.75;4.00
72509;PMS5003;60532;56.114;40.350;2022-11-11T08:10:55;11.00;11.00;5.50
72509;PMS5003;60532;56.114;40.350;2022-11-11T08:12:56;16.75;13.00;6.00
72509;PMS5003;60532;56.114;40.350;2022-11-11T08:15:14;19.40;15.40;7.00
72509;PMS5003;60532;56.114;40.350;2022-11-11T08:17:15;14.00;12.50;6.00
72509;PMS5003;60532;56.114;40.350;2022-11-11T08:19:15;11.00;11.00;6.25
72509;PMS5003;60532;56.114;40.350;2022-11-11T08:21:16;13.00;13.00;7.50
72509;PMS5003;60532;56.114;40.350;2022-11-11T08:23:16;17.25;14.50;6.50
72509;PMS5003;60532;56.114;40.350;2022-11-11T08:25:22;12.80;12.40;5.60
72509;PMS5003;60532;56.114;40.350;2022-11-11T08:27:23;18.25;12.75;6.25
72509;PMS5003;60532;56.114;40.350;2022-11-11T08:29:24;17.25;12.75;6.00
72509;PMS5003;60532;56.114;40.350;2022-11-11T08:31:24;15.25;12.75;7.00
72509;PMS5003;60532;56.114;40.350;2022-11-11T08:33:26;14.20;11.80;6.80
72509;PMS5003;60532;56.114;40.350;2022-11-11T08:35:26;13.60;12.00;4.80
72509;PMS5003;60532;56.114;40.350;2022-11-11T08:37:27;14.80;12.20;7.00
72509;PMS5003;60532;56.114;40.350;2022-11-11T08:39:28;15.50;11.50;6.00
72509;PMS5003;60532;56.114;40.350;2022-11-11T08:41:28;11.25;11.25;4.00
72509;PMS5003;60532;56.114;40.350;2022-11-11T08:43:29;11.25;10.00;5.00
72509;PMS5003;60532;56.114;40.350;2022-11-11T08:45:33;13.60;11.00;4.80
72509;PMS5003;60532;56.114;40.350;2022-11-11T08:47:33;12.25;11.75;6.00
72509;PMS5003;60532;56.114;40.350;2022-11-11T08:49:34;13.00;12.25;6.75
72509;PMS5003;60532;56.114;40.350;2022-11-11T08:51:34;11.00;11.00;6.00
72509;PMS5003;60532;56.114;40.350;2022-11-11T08:53:35;10.00;6.75;2.00
72509;PMS5003;60532;56.114;40.350;2022-11-11T08:55:35;15.00;12.50;6.00
72509;PMS5003;60532;56.114;40.350;2022-11-11T08:57:36;12.40;9.40;5.80
72509;PMS5003;60532;56.114;40.350;2022-11-11T08:59:37;11.25;11.25;7.00
72509;PMS5003;60532;56.114;40.350;2022-11-11T09:01:37;11.25;8.00;3.00
72509;PMS5003;60532;56.114;40.350;2022-11-11T09:03:38;7.00;7.00;2.75
72509;PMS5003;60532;56.114;40.350;2022-11-11T09:05:40;14.60;13.60;6.40
72509;PMS5003;60532;56.114;40.350;2022-11-11T09:07:41;10.00;10.00;6.00
72509;PMS5003;60532;56.114;40.350;2022-11-11T09:09:41;11.75;8.00;6.00
72509;PMS5003;60532;56.114;40.350;2022-11-11T09:11:42;12.75;11.00;6.00
72509;PMS5003;60532;56.114;40.350;2022-11-11T09:13:42;12.00;11.00;6.00
72509;PMS5003;60532;56.114;40.350;2022-11-11T09:15:43;8.75;8.00;3.25
72509;PMS5003;60532;56.114;40.350;2022-11-11T09:17:46;9.50;9.00;5.00
72509;PMS5003;60532;56.114;40.350;2022-11-11T09:19:47;14.60;10.60;4.80
72509;PMS5003;60532;56.114;40.350;2022-11-11T09:21:49;11.50;10.25;6.25
72509;PMS5003;60532;56.114;40.350;2022-11-11T09:23:49;6.00;6.00;3.00
72509;PMS5003;60532;56.114;40.350;2022-11-11T09:25:50;9.50;9.50;1.50
72509;PMS5003;60532;56.114;40.350;2022-11-11T09:27:57;12.50;11.25;5.00
72509;PMS5003;60532;56.114;40.350;2022-11-11T09:29:58;11.80;10.00;5.00
72509;PMS5003;60532;56.114;40.350;2022-11-11T09:31:58;6.75;6.75;2.00
72509;PMS5003;60532;56.114;40.350;2022-11-11T09:33:59;7.75;7.75;4.00
72509;PMS5003;60532;56.114;40.350;2022-11-11T09:35:59;8.00;8.00;3.50
72509;PMS5003;60532;56.114;40.350;2022-11-11T09:38:00;7.50;7.25;4.50
72509;PMS5003;60532;56.114;40.350;2022-11-11T09:40:01;8.40;8.40;4.00
72509;PMS5003;60532;56.114;40.350;2022-11-11T09:44:14;8.20;7.60;4.00
72509;PMS5003;60532;56.114;40.350;2022-11-11T09:50:57;10.00;8.40;3.80
72509;PMS5003;60532;56.114;40.350;2022-11-11T09:53:03;11.80;10.00;4.00
72509;PMS5003;60532;56.114;40.350;2022-11-11T09:59:46;8.80;7.20;4.00
72509;PMS5003;60532;56.114;40.350;2022-11-11T10:01:52;9.20;8.00;5.00
72509;PMS5003;60532;56.114;40.350;2022-11-11T10:10:29;8.40;8.40;5.00
72509;PMS5003;60532;56.114;40.350;2022-11-11T10:12:34;10.20;8.80;4.00
72509;PMS5003;60532;56.114;40.350;2022-11-11T10:14:39;11.20;7.80;5.00
72509;PMS5003;60532;56.114;40.350;2022-11-11T10:19:01;10.75;8.50;4.00
72509;PMS5003;60532;56.114;40.350;2022-11-11T10:21:07;9.60;9.60;4.80
72509;PMS5003;60532;56.114;40.350;2022-11-11T10:23:15;11.20;9.60;5.00
72509;PMS5003;60532;56.114;40.350;2022-11-11T10:25:23;12.00;10.40;5.00
72509;PMS5003;60532;56.114;40.350;2022-11-11T10:27:24;10.20;9.20;4.00
72509;PMS5003;60532;56.114;40.350;2022-11-11T10:29:25;10.20;8.60;5.40
72509;PMS5003;60532;56.114;40.350;2022-11-11T10:31:30;8.80;8.00;4.00
72509;PMS5003;60532;56.114;40.350;2022-11-11T10:33:33;11.80;8.00;6.00
72509;PMS5003;60532;56.114;40.350;2022-11-11T10:35:37;7.60;7.60;4.00
72509;PMS5003;60532;56.114;40.350;2022-11-11T10:37:39;10.40;10.00;5.20
72509;PMS5003;60532;56.114;40.350;2022-11-11T10:39:49;12.00;10.60;4.80
72509;PMS5003;60532;56.114;40.350;2022-11-11T10:41:54;12.40;10.20;4.20
72509;PMS5003;60532;56.114;40.350;2022-11-11T10:43:54;8.50;8.50;5.25
72509;PMS5003;60532;56.114;40.350;2022-11-11T10:48:19;11.20;8.40;5.80
72509;PMS5003;60532;56.114;40.350;2022-11-11T10:50:22;11.60;11.60;3.60
72509;PMS5003;60532;56.114;40.350;2022-11-11T10:52:26;11.00;7.00;3.80
72509;PMS5003;60532;56.114;40.350;2022-11-11T10:54:49;11.00;11.00;6.00
72509;PMS5003;60532;56.114;40.350;2022-11-11T10:56:55;12.00;11.80;6.00
72509;PMS5003;60532;56.114;40.350;2022-11-11T11:01:05;11.80;11.80;5.80
72509;PMS5003;60532;56.114;40.350;2022-11-11T11:05:25;12.00;12.00;5.20
72509;PMS5003;60532;56.114;40.350;2022-11-11T11:07:28;13.20;9.80;4.00
72509;PMS5003;60532;56.114;40.350;2022-11-11T11:09:40;16.40;11.40;6.80
72509;PMS5003;60532;56.114;40.350;2022-11-11T11:11:54;4.60;3.00;2.00
72509;PMS5003;60532;56.114;40.350;2022-11-11T11:14:02;9.20;9.20;4.00
72509;PMS5003;60532;56.114;40.350;2022-11-11T11:16:07;13.80;11.20;6.00
72509;PMS5003;60532;56.114;40.350;2022-11-11T11:18:11;11.60;11.20;4.00
72509;PMS5003;60532;56.114;40.350;2022-11-11T11:20:14;14.00;12.20;6.00
72509;PMS5003;60532;56.114;40.350;2022-11-11T11:22:15;11.60;11.60;4.00
72509;PMS5003;60532;56.114;40.350;2022-11-11T11:26:23;13.20;12.00;7.00
72509;PMS5003;60532;56.114;40.350;2022-11-11T11:28:23;8.25;8.25;3.50
72509;PMS5003;60532;56.114;40.350;2022-11-11T11:30:24;10.50;9.50;5.75
72509;PMS5003;60532;56.114;40.350;2022-11-11T11:32:31;12.20;10.60;6.00
72509;PMS5003;60532;56.114;40.350;2022-11-11T11:34:45;15.80;10.40;6.00
72509;PMS5003;60532;56.114;40.350;2022-11-11T11:36:58;10.00;10.00;5.00
72509;PMS5003;60532;56.114;40.350;2022-11-11T11:38:59;6.20;6.00;2.00
72509;PMS5003;60532;56.114;40.350;2022-11-11T11:41:00;15.80;13.40;6.00
72509;PMS5003;60532;56.114;40.350;2022-11-11T11:43:01;13.00;9.75;6.00
72509;PMS5003;60532;56.114;40.350;2022-11-11T11:47:24;16.80;13.00;6.40
72509;PMS5003;60532;56.114;40.350;2022-11-11T11:55:42;14.00;11.00;5.00
72509;PMS5003;60532;56.114;40.350;2022-11-11T11:57:51;16.40;13.40;7.00
72509;PMS5003;60532;56.114;40.350;2022-11-11T11:59:59;16.00;13.00;7.40
72509;PMS5003;60532;56.114;40.350;2022-11-11T12:06:25;12.00;10.80;5.20
72509;PMS5003;60532;56.114;40.350;2022-11-11T12:10:38;13.40;13.40;7.80
72509;PMS5003;60532;56.114;40.350;2022-11-11T12:17:43;12.20;11.20;6.40
72509;PMS5003;60532;56.114;40.350;2022-11-11T12:20:32;15.40;13.20;6.80
72509;PMS5003;60532;56.114;40.350;2022-11-11T12:35:25;20.00;17.40;8.80
72509;PMS5003;60532;56.114;40.350;2022-11-11T12:39:48;17.40;16.80;8.00
72509;PMS5003;60532;56.114;40.350;2022-11-11T12:42:06;18.20;16.00;7.00